Time,TemperatureF,DewpointF,PressureIn,WindDirection,WindDirectionDegrees,WindSpeedMPH,WindSpeedGustMPH,Humidity,HourlyPrecipIn,Conditions,Clouds,dailyrainin,SoftwareType,DateUTC
2013-01-10 00:08:00,43.3,32.0,30.52,North,4,0.0,1.0,64,0.00,,,0.00,weatherlink.com 1.10,2013-01-10 05:08:00,
2013-01-10 00:23:00,41.6,32.0,30.52,North,4,0.0,0.0,70,0.00,,,0.00,weatherlink.com 1.10,2013-01-10 05:23:00,
2013-01-10 00:53:00,39.0,32.0,30.52,North,5,0.0,0.0,77,0.00,,,0.00,weatherlink.com 1.10,2013-01-10 05:53:00,
2013-01-10 01:08:00,39.3,32.0,30.51,North,5,0.0,0.0,76,0.00,,,0.00,weatherlink.com 1.10,2013-01-10 06:08:00,
2013-01-10 01:23:00,39.3,34.0,30.52,North,5,0.0,0.0,81,0.00,,,0.00,weatherlink.com 1.10,2013-01-10 06:23:00,
2013-01-10 01:38:00,38.7,31.0,30.51,North,5,0.0,1.0,75,0.00,,,0.00,weatherlink.com 1.10,2013-01-10 06:38:00,
2013-01-10 01:53:00,39.7,31.0,30.51,North,5,0.0,0.0,72,0.00,,,0.00,weatherlink.com 1.10,2013-01-10 06:53:00,
2013-01-10 02:08:00,39.3,31.0,30.52,North,5,0.0,0.0,73,0.00,,,0.00,weatherlink.com 1.10,2013-01-10 07:08:00,
2013-01-10 02:23:00,38.4,31.0,30.52,North,5,0.0,0.0,75,0.00,,,0.00,weatherlink.com 1.10,2013-01-10 07:23:00,
2013-01-10 02:38:00,39.5,32.0,30.52,North,5,0.0,1.0,73,0.00,,,0.00,weatherlink.com 1.10,2013-01-10 07:38:00,
2013-01-10 02:53:00,42.5,34.0,30.52,NE,39,1.0,3.0,71,0.00,,,0.00,weatherlink.com 1.10,2013-01-10 07:53:00,
2013-01-10 03:08:00,42.8,33.0,30.52,NNE,33,3.0,3.0,69,0.00,,,0.00,weatherlink.com 1.10,2013-01-10 08:08:00,
2013-01-10 03:23:00,42.7,33.0,30.52,NE,44,1.0,2.0,69,0.00,,,0.00,weatherlink.com 1.10,2013-01-10 08:23:00,
2013-01-10 03:38:00,42.7,33.0,30.51,NE,37,2.0,2.0,69,0.00,,,0.00,weatherlink.com 1.10,2013-01-10 08:38:00,
2013-01-10 03:53:00,42.5,33.0,30.50,NNE,33,1.0,3.0,68,0.00,,,0.00,weatherlink.com 1.10,2013-01-10 08:53:00,
2013-01-10 04:08:00,42.0,32.0,30.50,NE,41,1.0,2.0,69,0.00,,,0.00,weatherlink.com 1.10,2013-01-10 09:08:00,
2013-01-10 04:23:00,41.0,33.0,30.49,NE,41,1.0,1.0,72,0.00,,,0.00,weatherlink.com 1.10,2013-01-10 09:23:00,
2013-01-10 04:38:00,39.3,32.0,30.49,NE,41,0.0,1.0,74,0.00,,,0.00,weatherlink.com 1.10,2013-01-10 09:38:00,
2013-01-10 04:53:00,37.3,31.0,30.49,NE,36,0.0,0.0,78,0.00,,,0.00,weatherlink.com 1.10,2013-01-10 09:53:00,
2013-01-10 05:08:00,37.0,31.0,30.49,NE,36,0.0,0.0,78,0.00,,,0.00,weatherlink.com 1.10,2013-01-10 10:08:00,
2013-01-10 05:23:00,35.8,31.0,30.49,NE,36,0.0,0.0,82,0.00,,,0.00,weatherlink.com 1.10,2013-01-10 10:23:00,
2013-01-10 05:38:00,36.0,31.0,30.49,NE,37,0.0,0.0,81,0.00,,,0.00,weatherlink.com 1.10,2013-01-10 10:38:00,
2013-01-10 05:54:00,37.0,32.0,30.48,ENE,66,1.0,1.0,81,0.00,,,0.00,weatherlink.com 1.10,2013-01-10 10:54:00,
2013-01-10 06:09:00,39.1,33.0,30.48,NE,49,1.0,3.0,78,0.00,,,0.00,weatherlink.com 1.10,2013-01-10 11:09:00,
2013-01-10 06:24:00,37.8,32.0,30.49,NE,55,0.0,2.0,79,0.00,,,0.00,weatherlink.com 1.10,2013-01-10 11:24:00,
2013-01-10 06:39:00,36.5,32.0,30.49,ENE,58,2.0,2.0,82,0.00,,,0.00,weatherlink.com 1.10,2013-01-10 11:39:00,
2013-01-10 06:54:00,37.4,32.0,30.49,ENE,60,1.0,2.0,81,0.00,,,0.00,weatherlink.com 1.10,2013-01-10 11:54:00,
2013-01-10 07:09:00,37.4,32.0,30.49,East,81,1.0,2.0,81,0.00,,,0.00,weatherlink.com 1.10,2013-01-10 12:09:00,
2013-01-10 07:24:00,36.9,32.0,30.50,ENE,74,1.0,2.0,82,0.00,,,0.00,weatherlink.com 1.10,2013-01-10 12:24:00,
2013-01-10 07:39:00,37.2,32.0,30.50,ENE,60,0.0,2.0,82,0.00,,,0.00,weatherlink.com 1.10,2013-01-10 12:39:00,
2013-01-10 07:54:00,36.9,32.0,30.50,ENE,64,1.0,2.0,81,0.00,,,0.00,weatherlink.com 1.10,2013-01-10 12:54:00,
2013-01-10 08:09:00,36.0,32.0,30.50,ENE,73,0.0,1.0,84,0.00,,,0.00,weatherlink.com 1.10,2013-01-10 13:09:00,
2013-01-10 08:24:00,37.0,32.0,30.50,ENE,69,1.0,3.0,82,0.00,,,0.00,weatherlink.com 1.10,2013-01-10 13:24:00,
2013-01-10 08:39:00,36.9,32.0,30.48,ENE,75,3.0,5.0,81,0.00,,,0.00,weatherlink.com 1.10,2013-01-10 13:39:00,
2013-01-10 08:54:00,37.7,32.0,30.48,ENE,77,3.0,5.0,80,0.00,,,0.00,weatherlink.com 1.10,2013-01-10 13:54:00,
2013-01-10 09:09:00,38.0,32.0,30.48,East,91,3.0,5.0,78,0.00,,,0.00,weatherlink.com 1.10,2013-01-10 14:09:00,
2013-01-10 09:24:00,37.8,32.0,30.48,ENE,68,5.0,7.0,78,0.00,,,0.00,weatherlink.com 1.10,2013-01-10 14:24:00,
2013-01-10 09:39:00,38.8,32.0,30.48,ENE,68,3.0,7.0,77,0.00,,,0.00,weatherlink.com 1.10,2013-01-10 14:39:00,
2013-01-10 09:54:00,38.8,32.0,30.48,East,85,4.0,5.0,77,0.00,,,0.00,weatherlink.com 1.10,2013-01-10 14:54:00,
2013-01-10 10:09:00,38.5,32.0,30.49,ENE,75,4.0,4.0,77,0.00,,,0.00,weatherlink.com 1.10,2013-01-10 15:09:00,
2013-01-10 10:39:00,39.7,33.0,30.49,ESE,115,5.0,5.0,76,0.00,,,0.00,weatherlink.com 1.10,2013-01-10 15:39:00,
2013-01-10 10:54:00,39.9,33.0,30.48,ENE,76,4.0,7.0,75,0.00,,,0.00,weatherlink.com 1.10,2013-01-10 15:54:00,
2013-01-10 11:09:00,40.2,33.0,30.47,ENE,75,2.0,6.0,75,0.00,,,0.00,weatherlink.com 1.10,2013-01-10 16:09:00,
2013-01-10 11:24:00,40.4,33.0,30.47,East,89,5.0,5.0,75,0.00,,,0.00,weatherlink.com 1.10,2013-01-10 16:24:00,
2013-01-10 11:39:00,40.7,33.0,30.46,ENE,70,5.0,8.0,74,0.00,,,0.00,weatherlink.com 1.10,2013-01-10 16:39:00,
2013-01-10 11:54:00,41.1,33.0,30.44,ENE,58,5.0,8.0,73,0.00,,,0.00,weatherlink.com 1.10,2013-01-10 16:54:00,
2013-01-10 12:09:00,41.2,33.0,30.43,East,87,6.0,9.0,73,0.00,,,0.00,weatherlink.com 1.10,2013-01-10 17:09:00,
2013-01-10 12:24:00,41.4,33.0,30.43,East,98,8.0,10.0,72,0.00,,,0.00,weatherlink.com 1.10,2013-01-10 17:24:00,
2013-01-10 12:39:00,41.7,33.0,30.41,East,101,7.0,11.0,72,0.00,,,0.00,weatherlink.com 1.10,2013-01-10 17:39:00,
2013-01-10 12:54:00,41.9,34.0,30.40,ESE,103,6.0,8.0,73,0.00,,,0.00,weatherlink.com 1.10,2013-01-10 17:54:00,
2013-01-10 13:09:00,42.1,34.0,30.39,East,88,6.0,7.0,73,0.00,,,0.00,weatherlink.com 1.10,2013-01-10 18:09:00,
2013-01-10 13:24:00,42.6,35.0,30.39,ESE,111,6.0,9.0,73,0.00,,,0.00,weatherlink.com 1.10,2013-01-10 18:24:00,
2013-01-10 13:39:00,43.2,35.0,30.37,ENE,72,5.0,8.0,72,0.00,,,0.00,weatherlink.com 1.10,2013-01-10 18:39:00,
2013-01-10 13:55:00,43.6,35.0,30.37,NE,55,4.0,10.0,73,0.00,,,0.00,weatherlink.com 1.10,2013-01-10 18:55:00,
2013-01-10 14:10:00,43.8,36.0,30.35,ENE,72,8.0,8.0,73,0.00,,,0.00,weatherlink.com 1.10,2013-01-10 19:10:00,
2013-01-10 14:25:00,43.8,36.0,30.35,East,83,4.0,6.0,74,0.00,,,0.00,weatherlink.com 1.10,2013-01-10 19:25:00,
2013-01-10 14:40:00,43.7,36.0,30.35,East,83,0.0,8.0,75,0.00,,,0.00,weatherlink.com 1.10,2013-01-10 19:40:00,
2013-01-10 14:55:00,43.4,37.0,30.35,East,91,1.0,3.0,77,0.01,,,0.01,weatherlink.com 1.10,2013-01-10 19:55:00,
2013-01-10 15:10:00,43.0,38.0,30.34,ENE,62,3.0,4.0,81,0.02,,,0.02,weatherlink.com 1.10,2013-01-10 20:10:00,
2013-01-10 15:25:00,42.8,37.0,30.33,NE,49,3.0,5.0,81,0.02,,,0.02,weatherlink.com 1.10,2013-01-10 20:25:00,
2013-01-10 15:55:00,43.2,38.0,30.33,East,89,5.0,7.0,81,0.01,,,0.02,weatherlink.com 1.10,2013-01-10 20:55:00,
2013-01-10 16:10:00,43.7,38.0,30.32,East,82,3.0,8.0,79,0.00,,,0.02,weatherlink.com 1.10,2013-01-10 21:10:00,
2013-01-10 16:25:00,44.3,38.0,30.32,East,84,4.0,6.0,77,0.00,,,0.02,weatherlink.com 1.10,2013-01-10 21:25:00,
2013-01-10 16:40:00,44.6,38.0,30.33,East,82,2.0,4.0,77,0.00,,,0.02,weatherlink.com 1.10,2013-01-10 21:40:00,
2013-01-10 16:55:00,44.9,38.0,30.32,ENE,78,3.0,3.0,76,0.00,,,0.02,weatherlink.com 1.10,2013-01-10 21:55:00,
2013-01-10 17:10:00,44.8,38.0,30.32,East,82,3.0,5.0,78,0.01,,,0.03,weatherlink.com 1.10,2013-01-10 22:10:00,
2013-01-10 17:40:00,44.1,39.0,30.29,East,91,6.0,8.0,82,0.01,,,0.03,weatherlink.com 1.10,2013-01-10 22:40:00,
2013-01-10 17:55:00,44.2,39.0,30.29,East,98,4.0,7.0,82,0.01,,,0.03,weatherlink.com 1.10,2013-01-10 22:55:00,
2013-01-10 18:10:00,44.5,39.0,30.29,ENE,72,3.0,5.0,80,0.00,,,0.03,weatherlink.com 1.10,2013-01-10 23:10:00,
2013-01-10 18:25:00,44.4,39.0,30.29,East,82,3.0,4.0,81,0.00,,,0.03,weatherlink.com 1.10,2013-01-10 23:25:00,
2013-01-10 18:40:00,44.1,39.0,30.27,East,80,4.0,5.0,82,0.00,,,0.03,weatherlink.com 1.10,2013-01-10 23:40:00,
2013-01-10 18:55:00,43.3,39.0,30.26,ENE,76,4.0,6.0,85,0.01,,,0.04,weatherlink.com 1.10,2013-01-10 23:55:00,
2013-01-10 19:10:00,43.5,39.0,30.26,ENE,68,4.0,4.0,85,0.01,,,0.04,weatherlink.com 1.10,2013-01-11 00:10:00,
2013-01-10 19:25:00,43.3,39.0,30.24,East,87,4.0,4.0,85,0.02,,,0.05,weatherlink.com 1.10,2013-01-11 00:25:00,
2013-01-10 19:40:00,43.8,39.0,30.24,ENE,78,3.0,6.0,83,0.02,,,0.05,weatherlink.com 1.10,2013-01-11 00:40:00,
2013-01-10 19:55:00,44.0,39.0,30.23,East,96,5.0,6.0,82,0.01,,,0.05,weatherlink.com 1.10,2013-01-11 00:55:00,
2013-01-10 20:10:00,44.7,39.0,30.21,East,94,5.0,7.0,79,0.01,,,0.05,weatherlink.com 1.10,2013-01-11 01:10:00,
2013-01-10 20:25:00,45.2,38.0,30.20,East,95,6.0,7.0,77,0.00,,,0.05,weatherlink.com 1.10,2013-01-11 01:25:00,
2013-01-10 20:55:00,46.4,39.0,30.19,ESE,105,6.0,8.0,75,0.00,,,0.05,weatherlink.com 1.10,2013-01-11 01:55:00,
2013-01-10 21:11:00,46.5,39.0,30.19,East,93,7.0,8.0,75,0.00,,,0.05,weatherlink.com 1.10,2013-01-11 02:11:00,
2013-01-10 21:25:00,46.8,39.0,30.18,ESE,106,6.0,7.0,75,0.00,,,0.05,weatherlink.com 1.10,2013-01-11 02:25:00,
2013-01-10 21:41:00,47.1,40.0,30.16,East,93,7.0,10.0,75,0.00,,,0.05,weatherlink.com 1.10,2013-01-11 02:41:00,
2013-01-10 21:56:00,47.3,40.0,30.16,East,98,5.0,8.0,76,0.00,,,0.05,weatherlink.com 1.10,2013-01-11 02:56:00,
2013-01-10 22:11:00,47.4,40.0,30.15,ESE,107,7.0,8.0,76,0.00,,,0.05,weatherlink.com 1.10,2013-01-11 03:11:00,
2013-01-10 22:26:00,47.7,41.0,30.14,East,99,5.0,7.0,77,0.00,,,0.05,weatherlink.com 1.10,2013-01-11 03:26:00,
2013-01-10 22:41:00,47.8,41.0,30.14,East,94,4.0,8.0,78,0.00,,,0.05,weatherlink.com 1.10,2013-01-11 03:41:00,
2013-01-10 22:56:00,47.9,41.0,30.13,ESE,104,5.0,6.0,78,0.00,,,0.05,weatherlink.com 1.10,2013-01-11 03:56:00,
2013-01-10 23:11:00,47.9,42.0,30.13,East,101,4.0,5.0,79,0.00,,,0.05,weatherlink.com 1.10,2013-01-11 04:11:00,
2013-01-10 23:26:00,48.0,42.0,30.12,ESE,108,6.0,8.0,80,0.00,,,0.05,weatherlink.com 1.10,2013-01-11 04:26:00,
2013-01-10 23:41:00,48.1,43.0,30.12,East,94,5.0,7.0,81,0.00,,,0.05,weatherlink.com 1.10,2013-01-11 04:41:00,
2013-01-10 23:56:00,48.1,43.0,30.11,East,92,6.0,7.0,81,0.00,,,0.05,weatherlink.com 1.10,2013-01-11 04:56:00,